sensor_id;sensor_type;location;lat;lon;timestamp;P1;durP1;ratioP1;P2;durP2;ratioP2
1346;SDS011;667;48.796;9.480;2023-06-26T00:01:50;10.00;;;9.10;;
1346;SDS011;667;48.796;9.480;2023-06-26T00:04:16;9.27;;;8.47;;
1346;SDS011;667;48.796;9.480;2023-06-26T00:06:41;9.53;;;8.63;;
1346;SDS011;667;48.796;9.480;2023-06-26T00:09:07;9.17;;;8.37;;
1346;SDS011;667;48.796;9.480;2023-06-26T00:11:33;10.07;;;9.07;;
1346;SDS011;667;48.796;9.480;2023-06-26T00:13:59;10.70;;;9.60;;
1346;SDS011;667;48.796;9.480;2023-06-26T00:16:25;9.53;;;8.60;;
1346;SDS011;667;48.796;9.480;2023-06-26T00:18:52;10.07;;;8.90;;
1346;SDS011;667;48.796;9.480;2023-06-26T00:21:18;9.90;;;8.90;;
1346;SDS011;667;48.796;9.480;2023-06-26T00:23:44;9.67;;;8.67;;
1346;SDS011;667;48.796;9.480;2023-06-26T00:26:10;9.17;;;8.27;;
1346;SDS011;667;48.796;9.480;2023-06-26T00:28:36;10.30;;;9.40;;
1346;SDS011;667;48.796;9.480;2023-06-26T00:31:02;9.20;;;8.30;;
1346;SDS011;667;48.796;9.480;2023-06-26T00:33:27;9.67;;;8.77;;
1346;SDS011;667;48.796;9.480;2023-06-26T00:35:53;10.27;;;9.27;;
1346;SDS011;667;48.796;9.480;2023-06-26T00:38:18;9.40;;;8.57;;
1346;SDS011;667;48.796;9.480;2023-06-26T00:40:44;9.10;;;8.30;;
1346;SDS011;667;48.796;9.480;2023-06-26T00:43:10;10.20;;;9.20;;
1346;SDS011;667;48.796;9.480;2023-06-26T00:45:35;8.83;;;8.00;;
1346;SDS011;667;48.796;9.480;2023-06-26T00:48:01;9.97;;;9.07;;
1346;SDS011;667;48.796;9.480;2023-06-26T00:50:27;10.40;;;9.40;;
1346;SDS011;667;48.796;9.480;2023-06-26T00:52:53;10.77;;;9.63;;
1346;SDS011;667;48.796;9.480;2023-06-26T00:55:25;10.23;;;9.17;;
1346;SDS011;667;48.796;9.480;2023-06-26T00:57:51;9.27;;;8.37;;
1346;SDS011;667;48.796;9.480;2023-06-26T01:00:17;13.00;;;9.47;;
1346;SDS011;667;48.796;9.480;2023-06-26T01:02:42;9.70;;;8.70;;
1346;SDS011;667;48.796;9.480;2023-06-26T01:05:08;10.03;;;9.03;;
1346;SDS011;667;48.796;9.480;2023-06-26T01:07:38;10.07;;;9.07;;
1346;SDS011;667;48.796;9.480;2023-06-26T01:10:04;9.67;;;8.67;;
1346;SDS011;667;48.796;9.480;2023-06-26T01:12:31;10.17;;;9.30;;
1346;SDS011;667;48.796;9.480;2023-06-26T01:14:57;8.80;;;8.00;;
1346;SDS011;667;48.796;9.480;2023-06-26T01:17:24;9.43;;;8.53;;
1346;SDS011;667;48.796;9.480;2023-06-26T01:19:52;9.63;;;8.50;;
1346;SDS011;667;48.796;9.480;2023-06-26T01:22:21;10.83;;;9.93;;
1346;SDS011;667;48.796;9.480;2023-06-26T01:27:38;9.83;;;8.83;;
1346;SDS011;667;48.796;9.480;2023-06-26T01:30:04;10.20;;;9.20;;
1346;SDS011;667;48.796;9.480;2023-06-26T01:32:31;10.00;;;9.00;;
1346;SDS011;667;48.796;9.480;2023-06-26T01:34:58;10.07;;;9.07;;
1346;SDS011;667;48.796;9.480;2023-06-26T01:37:24;8.93;;;8.13;;
1346;SDS011;667;48.796;9.480;2023-06-26T01:39:50;9.27;;;8.43;;
1346;SDS011;667;48.796;9.480;2023-06-26T01:42:16;8.83;;;8.00;;
1346;SDS011;667;48.796;9.480;2023-06-26T01:44:44;9.90;;;8.60;;
1346;SDS011;667;48.796;9.480;2023-06-26T01:47:12;9.80;;;8.73;;
1346;SDS011;667;48.796;9.480;2023-06-26T01:52:43;9.50;;;8.60;;
1346;SDS011;667;48.796;9.480;2023-06-26T01:55:21;10.00;;;9.10;;
1346;SDS011;667;48.796;9.480;2023-06-26T01:58:01;9.60;;;8.70;;
1346;SDS011;667;48.796;9.480;2023-06-26T02:00:27;9.60;;;8.67;;
1346;SDS011;667;48.796;9.480;2023-06-26T02:02:53;9.77;;;8.87;;
1346;SDS011;667;48.796;9.480;2023-06-26T02:05:19;9.73;;;8.83;;
1346;SDS011;667;48.796;9.480;2023-06-26T02:07:45;9.03;;;8.23;;
1346;SDS011;667;48.796;9.480;2023-06-26T02:10:10;8.17;;;7.47;;
1346;SDS011;667;48.796;9.480;2023-06-26T02:12:37;10.50;;;9.50;;
1346;SDS011;667;48.796;9.480;2023-06-26T02:15:03;9.37;;;8.57;;
1346;SDS011;667;48.796;9.480;2023-06-26T02:17:29;10.07;;;9.13;;
1346;SDS011;667;48.796;9.480;2023-06-26T02:19:55;10.47;;;9.47;;
1346;SDS011;667;48.796;9.480;2023-06-26T02:22:21;9.37;;;8.37;;
1346;SDS011;667;48.796;9.480;2023-06-26T02:24:47;8.87;;;7.90;;
1346;SDS011;667;48.796;9.480;2023-06-26T02:27:12;10.00;;;9.00;;
1346;SDS011;667;48.796;9.480;2023-06-26T02:29:38;8.33;;;7.53;;
1346;SDS011;667;48.796;9.480;2023-06-26T02:32:05;9.67;;;8.67;;
1346;SDS011;667;48.796;9.480;2023-06-26T02:34:31;9.97;;;9.07;;
1346;SDS011;667;48.796;9.480;2023-06-26T02:36:56;9.07;;;8.27;;
1346;SDS011;667;48.796;9.480;2023-06-26T02:39:23;10.13;;;9.17;;
1346;SDS011;667;48.796;9.480;2023-06-26T02:41:49;10.10;;;9.20;;
1346;SDS011;667;48.796;9.480;2023-06-26T02:44:15;8.77;;;8.00;;
1346;SDS011;667;48.796;9.480;2023-06-26T02:46:40;8.67;;;7.77;;
1346;SDS011;667;48.796;9.480;2023-06-26T02:49:06;10.17;;;8.70;;
1346;SDS011;667;48.796;9.480;2023-06-26T02:51:35;9.23;;;8.33;;
1346;SDS011;667;48.796;9.480;2023-06-26T02:54:00;10.77;;;9.67;;
1346;SDS011;667;48.796;9.480;2023-06-26T02:56:26;8.80;;;7.90;;
1346;SDS011;667;48.796;9.480;2023-06-26T02:58:55;10.50;;;9.50;;
1346;SDS011;667;48.796;9.480;2023-06-26T03:01:21;10.00;;;9.00;;
1346;SDS011;667;48.796;9.480;2023-06-26T03:03:47;9.23;;;8.33;;
1346;SDS011;667;48.796;9.480;2023-06-26T03:06:13;9.20;;;8.30;;
1346;SDS011;667;48.796;9.480;2023-06-26T03:08:39;9.60;;;8.70;;
1346;SDS011;667;48.796;9.480;2023-06-26T03:11:05;9.20;;;8.40;;
1346;SDS011;667;48.796;9.480;2023-06-26T03:13:32;9.33;;;8.33;;
1346;SDS011;667;48.796;9.480;2023-06-26T03:15:59;10.83;;;8.60;;
1346;SDS011;667;48.796;9.480;2023-06-26T03:18:25;9.57;;;8.67;;
1346;SDS011;667;48.796;9.480;2023-06-26T03:20:50;9.30;;;8.40;;
1346;SDS011;667;48.796;9.480;2023-06-26T03:23:18;10.70;;;9.57;;
1346;SDS011;667;48.796;9.480;2023-06-26T03:25:45;9.20;;;8.30;;
1346;SDS011;667;48.796;9.480;2023-06-26T03:28:11;8.60;;;7.80;;
1346;SDS011;667;48.796;9.480;2023-06-26T03:30:36;11.10;;;10.00;;
1346;SDS011;667;48.796;9.480;2023-06-26T03:33:02;9.00;;;8.20;;
1346;SDS011;667;48.796;9.480;2023-06-26T03:35:28;9.67;;;8.80;;
1346;SDS011;667;48.796;9.480;2023-06-26T03:37:53;9.70;;;8.80;;
1346;SDS011;667;48.796;9.480;2023-06-26T03:40:19;9.70;;;8.80;;
1346;SDS011;667;48.796;9.480;2023-06-26T03:42:45;10.13;;;9.23;;
1346;SDS011;667;48.796;9.480;2023-06-26T03:45:10;11.10;;;9.17;;
1346;SDS011;667;48.796;9.480;2023-06-26T03:47:36;9.87;;;8.87;;
1346;SDS011;667;48.796;9.480;2023-06-26T03:50:01;9.20;;;8.30;;
1346;SDS011;667;48.796;9.480;2023-06-26T03:52:27;9.50;;;8.47;;
1346;SDS011;667;48.796;9.480;2023-06-26T03:54:55;10.03;;;9.03;;
1346;SDS011;667;48.796;9.480;2023-06-26T03:57:22;9.77;;;8.80;;
1346;SDS011;667;48.796;9.480;2023-06-26T03:59:47;8.90;;;8.03;;
1346;SDS011;667;48.796;9.480;2023-06-26T04:02:13;9.70;;;8.73;;
1346;SDS011;667;48.796;9.480;2023-06-26T04:04:39;9.10;;;7.30;;
1346;SDS011;667;48.796;9.480;2023-06-26T04:07:04;9.20;;;8.30;;
1346;SDS011;667;48.796;9.480;2023-06-26T04:09:30;10.40;;;9.40;;
1346;SDS011;667;48.796;9.480;2023-06-26T04:11:55;10.63;;;8.40;;
1346;SDS011;667;48.796;9.480;2023-06-26T04:14:21;9.57;;;8.67;;
1346;SDS011;667;48.796;9.480;2023-06-26T04:16:47;9.63;;;8.73;;
1346;SDS011;667;48.796;9.480;2023-06-26T04:19:12;10.17;;;9.10;;
1346;SDS011;667;48.796;9.480;2023-06-26T04:21:38;9.90;;;9.00;;
1346;SDS011;667;48.796;9.480;2023-06-26T04:24:04;9.07;;;8.17;;
1346;SDS011;667;48.796;9.480;2023-06-26T04:26:30;9.87;;;8.97;;
1346;SDS011;667;48.796;9.480;2023-06-26T04:28:55;8.90;;;8.10;;
1346;SDS011;667;48.796;9.480;2023-06-26T04:31:21;10.80;;;9.70;;
1346;SDS011;667;48.796;9.480;2023-06-26T04:33:47;11.80;;;9.90;;
1346;SDS011;667;48.796;9.480;2023-06-26T04:36:16;11.03;;;9.93;;
1346;SDS011;667;48.796;9.480;2023-06-26T04:38:42;9.67;;;8.77;;
1346;SDS011;667;48.796;9.480;2023-06-26T04:41:08;10.57;;;9.50;;
1346;SDS011;667;48.796;9.480;2023-06-26T04:43:33;11.07;;;10.07;;
1346;SDS011;667;48.796;9.480;2023-06-26T04:45:59;10.43;;;9.43;;
1346;SDS011;667;48.796;9.480;2023-06-26T04:48:24;10.97;;;9.97;;
1346;SDS011;667;48.796;9.480;2023-06-26T04:50:52;9.67;;;8.83;;
1346;SDS011;667;48.796;9.480;2023-06-26T04:53:21;11.73;;;10.50;;
1346;SDS011;667;48.796;9.480;2023-06-26T04:55:48;10.70;;;9.70;;
1346;SDS011;667;48.796;9.480;2023-06-26T04:58:14;11.00;;;10.00;;
1346;SDS011;667;48.796;9.480;2023-06-26T05:00:41;12.87;;;11.10;;
1346;SDS011;667;48.796;9.480;2023-06-26T05:03:09;12.33;;;11.00;;
1346;SDS011;667;48.796;9.480;2023-06-26T05:05:35;11.83;;;10.77;;
1346;SDS011;667;48.796;9.480;2023-06-26T05:08:12;11.70;;;10.40;;
1346;SDS011;667;48.796;9.480;2023-06-26T05:10:56;12.50;;;11.27;;
1346;SDS011;667;48.796;9.480;2023-06-26T05:13:23;11.27;;;10.27;;
1346;SDS011;667;48.796;9.480;2023-06-26T05:15:49;11.77;;;10.57;;
1346;SDS011;667;48.796;9.480;2023-06-26T05:18:15;12.27;;;10.73;;
1346;SDS011;667;48.796;9.480;2023-06-26T05:20:40;11.13;;;9.93;;
1346;SDS011;667;48.796;9.480;2023-06-26T05:23:06;11.90;;;10.20;;
1346;SDS011;667;48.796;9.480;2023-06-26T05:25:32;17.80;;;11.07;;
1346;SDS011;667;48.796;9.480;2023-06-26T05:27:59;11.83;;;10.63;;
1346;SDS011;667;48.796;9.480;2023-06-26T05:30:25;10.67;;;9.67;;
1346;SDS011;667;48.796;9.480;2023-06-26T05:32:52;12.43;;;10.20;;
1346;SDS011;667;48.796;9.480;2023-06-26T05:35:21;12.90;;;10.20;;
1346;SDS011;667;48.796;9.480;2023-06-26T05:37:48;12.77;;;10.63;;
1346;SDS011;667;48.796;9.480;2023-06-26T05:40:16;10.87;;;9.77;;
1346;SDS011;667;48.796;9.480;2023-06-26T05:42:43;12.87;;;11.57;;
1346;SDS011;667;48.796;9.480;2023-06-26T05:45:09;11.27;;;10.07;;
1346;SDS011;667;48.796;9.480;2023-06-26T05:47:35;11.77;;;10.57;;
1346;SDS011;667;48.796;9.480;2023-06-26T05:50:01;10.60;;;9.60;;
1346;SDS011;667;48.796;9.480;2023-06-26T05:52:27;12.03;;;10.40;;
1346;SDS011;667;48.796;9.480;2023-06-26T05:54:53;11.20;;;10.00;;
1346;SDS011;667;48.796;9.480;2023-06-26T05:57:20;12.07;;;10.97;;
1346;SDS011;667;48.796;9.480;2023-06-26T05:59:46;11.23;;;10.23;;
1346;SDS011;667;48.796;9.480;2023-06-26T06:02:12;11.70;;;10.53;;
1346;SDS011;667;48.796;9.480;2023-06-26T06:04:38;11.43;;;10.33;;
1346;SDS011;667;48.796;9.480;2023-06-26T06:07:04;11.30;;;10.20;;
1346;SDS011;667;48.796;9.480;2023-06-26T06:09:29;10.40;;;9.40;;
1346;SDS011;667;48.796;9.480;2023-06-26T06:11:55;10.50;;;9.50;;
1346;SDS011;667;48.796;9.480;2023-06-26T06:14:20;10.80;;;9.80;;
1346;SDS011;667;48.796;9.480;2023-06-26T06:16:46;11.10;;;10.00;;
1346;SDS011;667;48.796;9.480;2023-06-26T06:19:12;10.90;;;9.90;;
1346;SDS011;667;48.796;9.480;2023-06-26T06:21:38;10.53;;;9.53;;
1346;SDS011;667;48.796;9.480;2023-06-26T06:24:04;10.20;;;9.20;;
1346;SDS011;667;48.796;9.480;2023-06-26T06:26:31;9.87;;;8.87;;
1346;SDS011;667;48.796;9.480;2023-06-26T06:28:57;11.87;;;10.20;;
1346;SDS011;667;48.796;9.480;2023-06-26T06:31:23;11.30;;;10.13;;
1346;SDS011;667;48.796;9.480;2023-06-26T06:33:49;9.20;;;8.40;;
1346;SDS011;667;48.796;9.480;2023-06-26T06:36:14;10.73;;;9.70;;
1346;SDS011;667;48.796;9.480;2023-06-26T06:38:42;10.50;;;9.30;;
1346;SDS011;667;48.796;9.480;2023-06-26T06:41:08;10.83;;;9.63;;
1346;SDS011;667;48.796;9.480;2023-06-26T06:43:34;11.07;;;10.00;;
1346;SDS011;667;48.796;9.480;2023-06-26T06:46:00;11.17;;;10.07;;
1346;SDS011;667;48.796;9.480;2023-06-26T06:48:26;10.33;;;9.33;;
1346;SDS011;667;48.796;9.480;2023-06-26T06:50:52;10.97;;;9.93;;
1346;SDS011;667;48.796;9.480;2023-06-26T06:53:17;10.70;;;9.70;;
1346;SDS011;667;48.796;9.480;2023-06-26T06:55:45;11.13;;;10.03;;
1346;SDS011;667;48.796;9.480;2023-06-26T06:58:11;10.33;;;9.43;;
1346;SDS011;667;48.796;9.480;2023-06-26T07:00:37;9.97;;;9.00;;
1346;SDS011;667;48.796;9.480;2023-06-26T07:03:02;10.00;;;9.00;;
1346;SDS011;667;48.796;9.480;2023-06-26T07:05:28;10.97;;;9.97;;
1346;SDS011;667;48.796;9.480;2023-06-26T07:07:54;9.73;;;8.80;;
1346;SDS011;667;48.796;9.480;2023-06-26T07:10:20;15.53;;;10.00;;
1346;SDS011;667;48.796;9.480;2023-06-26T07:12:45;13.70;;;9.30;;
1346;SDS011;667;48.796;9.480;2023-06-26T07:15:11;10.13;;;9.23;;
1346;SDS011;667;48.796;9.480;2023-06-26T07:17:37;10.73;;;9.83;;
1346;SDS011;667;48.796;9.480;2023-06-26T07:20:04;10.33;;;9.43;;
1346;SDS011;667;48.796;9.480;2023-06-26T07:22:35;9.90;;;9.07;;
1346;SDS011;667;48.796;9.480;2023-06-26T07:25:02;9.47;;;8.67;;
1346;SDS011;667;48.796;9.480;2023-06-26T07:27:29;9.57;;;8.67;;
1346;SDS011;667;48.796;9.480;2023-06-26T07:29:54;9.67;;;8.83;;
1346;SDS011;667;48.796;9.480;2023-06-26T07:32:20;9.70;;;8.80;;
1346;SDS011;667;48.796;9.480;2023-06-26T07:34:45;9.80;;;9.00;;
1346;SDS011;667;48.796;9.480;2023-06-26T07:37:11;10.53;;;9.53;;
1346;SDS011;667;48.796;9.480;2023-06-26T07:39:36;9.70;;;8.73;;
1346;SDS011;667;48.796;9.480;2023-06-26T07:42:02;9.40;;;8.57;;
1346;SDS011;667;48.796;9.480;2023-06-26T07:44:28;9.37;;;8.57;;
1346;SDS011;667;48.796;9.480;2023-06-26T07:46:53;9.30;;;8.50;;
1346;SDS011;667;48.796;9.480;2023-06-26T07:49:19;10.17;;;9.20;;
1346;SDS011;667;48.796;9.480;2023-06-26T07:51:44;9.83;;;9.07;;
1346;SDS011;667;48.796;9.480;2023-06-26T07:54:10;9.17;;;8.47;;
1346;SDS011;667;48.796;9.480;2023-06-26T07:56:51;9.40;;;8.60;;
1346;SDS011;667;48.796;9.480;2023-06-26T07:59:22;9.17;;;8.47;;
1346;SDS011;667;48.796;9.480;2023-06-26T08:01:49;10.33;;;9.43;;
1346;SDS011;667;48.796;9.480;2023-06-26T08:04:17;9.20;;;8.40;;
1346;SDS011;667;48.796;9.480;2023-06-26T08:06:43;9.53;;;8.73;;
1346;SDS011;667;48.796;9.480;2023-06-26T08:09:09;10.00;;;9.20;;
1346;SDS011;667;48.796;9.480;2023-06-26T08:11:35;9.63;;;8.83;;
1346;SDS011;667;48.796;9.480;2023-06-26T08:14:00;9.57;;;8.87;;
1346;SDS011;667;48.796;9.480;2023-06-26T08:16:26;9.50;;;8.67;;
1346;SDS011;667;48.796;9.480;2023-06-26T08:18:51;9.60;;;8.50;;
1346;SDS011;667;48.796;9.480;2023-06-26T08:21:17;9.70;;;8.90;;
1346;SDS011;667;48.796;9.480;2023-06-26T08:23:43;10.80;;;8.63;;
1346;SDS011;667;48.796;9.480;2023-06-26T08:26:08;10.07;;;9.17;;
1346;SDS011;667;48.796;9.480;2023-06-26T08:28:34;8.83;;;8.00;;
1346;SDS011;667;48.796;9.480;2023-06-26T08:30:59;8.47;;;7.73;;
1346;SDS011;667;48.796;9.480;2023-06-26T08:33:25;8.63;;;8.03;;
1346;SDS011;667;48.796;9.480;2023-06-26T08:35:51;10.33;;;9.40;;
1346;SDS011;667;48.796;9.480;2023-06-26T08:38:16;9.83;;;8.97;;
1346;SDS011;667;48.796;9.480;2023-06-26T08:40:42;8.90;;;8.20;;
1346;SDS011;667;48.796;9.480;2023-06-26T08:43:08;8.27;;;7.60;;
1346;SDS011;667;48.796;9.480;2023-06-26T08:45:33;13.40;;;9.03;;
1346;SDS011;667;48.796;9.480;2023-06-26T08:48:00;8.10;;;7.50;;
1346;SDS011;667;48.796;9.480;2023-06-26T08:50:30;10.40;;;9.40;;
1346;SDS011;667;48.796;9.480;2023-06-26T08:53:08;9.57;;;8.77;;
1346;SDS011;667;48.796;9.480;2023-06-26T08:55:53;9.37;;;8.57;;
1346;SDS011;667;48.796;9.480;2023-06-26T08:58:22;8.83;;;8.13;;
1346;SDS011;667;48.796;9.480;2023-06-26T09:00:48;11.33;;;9.87;;
1346;SDS011;667;48.796;9.480;2023-06-26T09:03:14;8.93;;;8.23;;
1346;SDS011;667;48.796;9.480;2023-06-26T09:05:41;9.03;;;8.40;;
1346;SDS011;667;48.796;9.480;2023-06-26T09:08:07;9.27;;;8.47;;
1346;SDS011;667;48.796;9.480;2023-06-26T09:10:33;9.47;;;8.73;;
1346;SDS011;667;48.796;9.480;2023-06-26T09:12:58;9.80;;;9.00;;
1346;SDS011;667;48.796;9.480;2023-06-26T09:15:26;8.73;;;8.13;;
1346;SDS011;667;48.796;9.480;2023-06-26T09:17:55;9.73;;;9.03;;
1346;SDS011;667;48.796;9.480;2023-06-26T09:20:22;8.37;;;7.57;;
1346;SDS011;667;48.796;9.480;2023-06-26T09:22:48;9.60;;;8.30;;
1346;SDS011;667;48.796;9.480;2023-06-26T09:25:13;8.97;;;8.17;;
1346;SDS011;667;48.796;9.480;2023-06-26T09:27:39;8.47;;;7.80;;
1346;SDS011;667;48.796;9.480;2023-06-26T09:30:07;8.90;;;8.10;;
1346;SDS011;667;48.796;9.480;2023-06-26T09:32:34;9.57;;;8.60;;
1346;SDS011;667;48.796;9.480;2023-06-26T09:35:01;8.93;;;7.90;;
1346;SDS011;667;48.796;9.480;2023-06-26T09:37:28;8.50;;;7.90;;
1346;SDS011;667;48.796;9.480;2023-06-26T09:39:54;8.90;;;8.20;;
1346;SDS011;667;48.796;9.480;2023-06-26T09:42:20;9.23;;;8.43;;
1346;SDS011;667;48.796;9.480;2023-06-26T09:44:48;9.30;;;8.40;;
1346;SDS011;667;48.796;9.480;2023-06-26T09:47:16;9.30;;;8.60;;
1346;SDS011;667;48.796;9.480;2023-06-26T09:49:43;9.57;;;8.77;;
1346;SDS011;667;48.796;9.480;2023-06-26T09:52:09;8.57;;;7.80;;
1346;SDS011;667;48.796;9.480;2023-06-26T09:54:38;9.43;;;8.77;;
1346;SDS011;667;48.796;9.480;2023-06-26T09:57:10;8.87;;;8.17;;
1346;SDS011;667;48.796;9.480;2023-06-26T09:59:43;8.67;;;8.00;;
1346;SDS011;667;48.796;9.480;2023-06-26T10:02:10;8.90;;;8.30;;
1346;SDS011;667;48.796;9.480;2023-06-26T10:04:37;9.50;;;8.60;;
1346;SDS011;667;48.796;9.480;2023-06-26T10:07:06;8.57;;;7.97;;
1346;SDS011;667;48.796;9.480;2023-06-26T10:09:36;9.00;;;8.30;;
1346;SDS011;667;48.796;9.480;2023-06-26T10:14:38;9.17;;;8.30;;
1346;SDS011;667;48.796;9.480;2023-06-26T10:17:07;8.50;;;7.90;;
1346;SDS011;667;48.796;9.480;2023-06-26T10:19:36;8.17;;;7.57;;
1346;SDS011;667;48.796;9.480;2023-06-26T10:22:04;8.83;;;7.80;;
1346;SDS011;667;48.796;9.480;2023-06-26T10:24:33;9.03;;;8.33;;
1346;SDS011;667;48.796;9.480;2023-06-26T10:27:04;8.90;;;8.30;;
1346;SDS011;667;48.796;9.480;2023-06-26T10:29:36;9.43;;;8.53;;
1346;SDS011;667;48.796;9.480;2023-06-26T10:32:02;9.50;;;8.70;;
1346;SDS011;667;48.796;9.480;2023-06-26T10:34:30;9.43;;;8.57;;
1346;SDS011;667;48.796;9.480;2023-06-26T10:36:59;9.60;;;8.70;;
1346;SDS011;667;48.796;9.480;2023-06-26T10:42:14;9.30;;;8.50;;
1346;SDS011;667;48.796;9.480;2023-06-26T10:44:41;9.27;;;8.20;;
1346;SDS011;667;48.796;9.480;2023-06-26T10:47:11;8.30;;;7.70;;
1346;SDS011;667;48.796;9.480;2023-06-26T10:49:53;8.47;;;7.77;;
1346;SDS011;667;48.796;9.480;2023-06-26T10:52:19;9.30;;;8.50;;
1346;SDS011;667;48.796;9.480;2023-06-26T10:54:44;9.50;;;8.80;;
1346;SDS011;667;48.796;9.480;2023-06-26T10:57:10;9.60;;;8.90;;
1346;SDS011;667;48.796;9.480;2023-06-26T10:59:38;9.70;;;8.80;;
1346;SDS011;667;48.796;9.480;2023-06-26T11:02:05;11.30;;;8.40;;
1346;SDS011;667;48.796;9.480;2023-06-26T11:04:37;10.50;;;9.47;;
1346;SDS011;667;48.796;9.480;2023-06-26T11:07:17;9.77;;;8.63;;
1346;SDS011;667;48.796;9.480;2023-06-26T11:15:10;9.97;;;9.00;;
1346;SDS011;667;48.796;9.480;2023-06-26T11:17:37;10.10;;;9.23;;
1346;SDS011;667;48.796;9.480;2023-06-26T11:20:07;9.70;;;8.80;;
1346;SDS011;667;48.796;9.480;2023-06-26T11:22:37;9.77;;;9.07;;
1346;SDS011;667;48.796;9.480;2023-06-26T11:25:04;9.80;;;9.00;;
1346;SDS011;667;48.796;9.480;2023-06-26T11:27:40;10.37;;;9.43;;
1346;SDS011;667;48.796;9.480;2023-06-26T11:30:07;10.70;;;9.90;;
1346;SDS011;667;48.796;9.480;2023-06-26T11:32:36;10.60;;;9.67;;
1346;SDS011;667;48.796;9.480;2023-06-26T11:35:02;10.63;;;9.80;;
1346;SDS011;667;48.796;9.480;2023-06-26T11:37:32;10.13;;;9.33;;
1346;SDS011;667;48.796;9.480;2023-06-26T11:39:58;10.90;;;10.00;;
1346;SDS011;667;48.796;9.480;2023-06-26T11:42:24;10.30;;;9.50;;
1346;SDS011;667;48.796;9.480;2023-06-26T11:44:50;10.73;;;9.93;;
1346;SDS011;667;48.796;9.480;2023-06-26T11:47:18;10.27;;;9.47;;
1346;SDS011;667;48.796;9.480;2023-06-26T11:49:45;10.60;;;9.83;;
1346;SDS011;667;48.796;9.480;2023-06-26T11:52:12;10.10;;;9.30;;
1346;SDS011;667;48.796;9.480;2023-06-26T11:54:39;11.17;;;10.00;;
1346;SDS011;667;48.796;9.480;2023-06-26T11:57:05;10.33;;;9.63;;
1346;SDS011;667;48.796;9.480;2023-06-26T11:59:40;10.00;;;9.10;;
1346;SDS011;667;48.796;9.480;2023-06-26T12:02:07;10.50;;;9.57;;
1346;SDS011;667;48.796;9.480;2023-06-26T12:04:35;11.17;;;10.03;;
1346;SDS011;667;48.796;9.480;2023-06-26T12:07:06;10.97;;;9.97;;
1346;SDS011;667;48.796;9.480;2023-06-26T12:09:34;9.97;;;9.20;;
1346;SDS011;667;48.796;9.480;2023-06-26T12:12:08;10.23;;;9.43;;
1346;SDS011;667;48.796;9.480;2023-06-26T12:14:35;10.47;;;9.57;;
1346;SDS011;667;48.796;9.480;2023-06-26T12:17:07;9.73;;;8.93;;
1346;SDS011;667;48.796;9.480;2023-06-26T12:19:38;10.73;;;9.93;;
1346;SDS011;667;48.796;9.480;2023-06-26T12:22:07;10.60;;;9.60;;
1346;SDS011;667;48.796;9.480;2023-06-26T12:24:35;10.10;;;9.20;;
1346;SDS011;667;48.796;9.480;2023-06-26T12:27:07;10.13;;;9.33;;
1346;SDS011;667;48.796;9.480;2023-06-26T12:29:34;10.17;;;9.03;;
1346;SDS011;667;48.796;9.480;2023-06-26T12:32:00;9.80;;;8.97;;
1346;SDS011;667;48.796;9.480;2023-06-26T12:34:27;10.13;;;9.30;;
1346;SDS011;667;48.796;9.480;2023-06-26T12:37:07;9.73;;;8.83;;
1346;SDS011;667;48.796;9.480;2023-06-26T12:42:13;10.23;;;9.23;;
1346;SDS011;667;48.796;9.480;2023-06-26T12:44:40;10.40;;;9.60;;
1346;SDS011;667;48.796;9.480;2023-06-26T12:47:06;11.00;;;10.20;;
1346;SDS011;667;48.796;9.480;2023-06-26T12:49:39;10.57;;;9.60;;
1346;SDS011;667;48.796;9.480;2023-06-26T12:52:07;11.17;;;9.90;;
1346;SDS011;667;48.796;9.480;2023-06-26T12:54:34;11.07;;;10.10;;
1346;SDS011;667;48.796;9.480;2023-06-26T12:57:01;10.40;;;9.43;;
1346;SDS011;667;48.796;9.480;2023-06-26T12:59:28;10.00;;;9.30;;
1346;SDS011;667;48.796;9.480;2023-06-26T13:01:55;10.10;;;9.40;;
1346;SDS011;667;48.796;9.480;2023-06-26T13:04:21;11.07;;;10.20;;
1346;SDS011;667;48.796;9.480;2023-06-26T13:06:46;10.63;;;9.73;;
1346;SDS011;667;48.796;9.480;2023-06-26T13:09:12;10.63;;;9.20;;
1346;SDS011;667;48.796;9.480;2023-06-26T13:11:38;10.30;;;9.33;;
1346;SDS011;667;48.796;9.480;2023-06-26T13:14:03;10.60;;;9.70;;
1346;SDS011;667;48.796;9.480;2023-06-26T13:16:29;10.20;;;9.30;;
1346;SDS011;667;48.796;9.480;2023-06-26T13:18:55;9.97;;;9.17;;
1346;SDS011;667;48.796;9.480;2023-06-26T13:21:23;11.17;;;10.07;;
1346;SDS011;667;48.796;9.480;2023-06-26T13:23:49;9.77;;;8.97;;
1346;SDS011;667;48.796;9.480;2023-06-26T13:26:14;10.43;;;9.50;;
1346;SDS011;667;48.796;9.480;2023-06-26T13:28:40;9.33;;;8.60;;
1346;SDS011;667;48.796;9.480;2023-06-26T13:31:06;9.57;;;8.77;;
1346;SDS011;667;48.796;9.480;2023-06-26T13:33:31;9.73;;;9.00;;
1346;SDS011;667;48.796;9.480;2023-06-26T13:35:57;9.43;;;8.73;;
1346;SDS011;667;48.796;9.480;2023-06-26T13:38:23;9.90;;;8.97;;
1346;SDS011;667;48.796;9.480;2023-06-26T13:40:53;10.90;;;9.93;;
1346;SDS011;667;48.796;9.480;2023-06-26T13:43:20;9.50;;;8.70;;
1346;SDS011;667;48.796;9.480;2023-06-26T13:45:47;10.20;;;8.50;;
1346;SDS011;667;48.796;9.480;2023-06-26T13:48:12;10.30;;;8.50;;
1346;SDS011;667;48.796;9.480;2023-06-26T13:50:38;9.73;;;8.80;;
1346;SDS011;667;48.796;9.480;2023-06-26T13:53:04;9.67;;;8.70;;
1346;SDS011;667;48.796;9.480;2023-06-26T13:55:30;8.33;;;7.63;;
1346;SDS011;667;48.796;9.480;2023-06-26T13:57:56;9.30;;;8.60;;
1346;SDS011;667;48.796;9.480;2023-06-26T14:00:22;8.83;;;8.13;;
1346;SDS011;667;48.796;9.480;2023-06-26T14:02:51;8.87;;;7.97;;
1346;SDS011;667;48.796;9.480;2023-06-26T14:05:17;8.90;;;8.07;;
1346;SDS011;667;48.796;9.480;2023-06-26T14:07:43;10.10;;;8.00;;
1346;SDS011;667;48.796;9.480;2023-06-26T14:10:12;8.30;;;7.60;;
1346;SDS011;667;48.796;9.480;2023-06-26T14:12:38;8.77;;;8.07;;
1346;SDS011;667;48.796;9.480;2023-06-26T14:15:05;8.50;;;7.80;;
1346;SDS011;667;48.796;9.480;2023-06-26T14:17:31;11.57;;;8.47;;
1346;SDS011;667;48.796;9.480;2023-06-26T14:19:56;8.90;;;8.20;;
1346;SDS011;667;48.796;9.480;2023-06-26T14:22:22;8.23;;;7.63;;
1346;SDS011;667;48.796;9.480;2023-06-26T14:24:48;7.07;;;6.40;;
1346;SDS011;667;48.796;9.480;2023-06-26T14:27:14;7.60;;;7.00;;
1346;SDS011;667;48.796;9.480;2023-06-26T14:29:40;6.90;;;6.30;;
1346;SDS011;667;48.796;9.480;2023-06-26T14:32:06;7.40;;;6.70;;
1346;SDS011;667;48.796;9.480;2023-06-26T14:34:32;6.93;;;6.23;;
1346;SDS011;667;48.796;9.480;2023-06-26T14:36:57;7.07;;;6.57;;
1346;SDS011;667;48.796;9.480;2023-06-26T14:39:23;6.53;;;6.03;;
1346;SDS011;667;48.796;9.480;2023-06-26T14:41:49;7.10;;;6.60;;
1346;SDS011;667;48.796;9.480;2023-06-26T14:44:15;6.57;;;6.10;;
1346;SDS011;667;48.796;9.480;2023-06-26T14:46:40;6.47;;;5.97;;
1346;SDS011;667;48.796;9.480;2023-06-26T14:49:06;7.37;;;5.90;;
1346;SDS011;667;48.796;9.480;2023-06-26T14:51:32;6.70;;;5.60;;
1346;SDS011;667;48.796;9.480;2023-06-26T14:53:58;6.03;;;5.53;;
1346;SDS011;667;48.796;9.480;2023-06-26T14:56:24;6.10;;;5.10;;
1346;SDS011;667;48.796;9.480;2023-06-26T14:58:50;5.57;;;5.00;;
1346;SDS011;667;48.796;9.480;2023-06-26T15:01:17;5.67;;;5.17;;
1346;SDS011;667;48.796;9.480;2023-06-26T15:03:46;4.93;;;4.40;;
1346;SDS011;667;48.796;9.480;2023-06-26T15:06:12;5.53;;;5.03;;
1346;SDS011;667;48.796;9.480;2023-06-26T15:08:38;4.97;;;4.57;;
1346;SDS011;667;48.796;9.480;2023-06-26T15:11:03;5.63;;;4.97;;
1346;SDS011;667;48.796;9.480;2023-06-26T15:13:29;5.10;;;4.70;;
1346;SDS011;667;48.796;9.480;2023-06-26T15:15:54;5.07;;;4.67;;
1346;SDS011;667;48.796;9.480;2023-06-26T15:18:20;5.13;;;4.63;;
1346;SDS011;667;48.796;9.480;2023-06-26T15:20:45;5.30;;;4.77;;
1346;SDS011;667;48.796;9.480;2023-06-26T15:23:11;5.30;;;4.80;;
1346;SDS011;667;48.796;9.480;2023-06-26T15:25:37;5.93;;;5.00;;
1346;SDS011;667;48.796;9.480;2023-06-26T15:28:03;5.13;;;4.63;;
1346;SDS011;667;48.796;9.480;2023-06-26T15:30:30;5.83;;;5.10;;
1346;SDS011;667;48.796;9.480;2023-06-26T15:32:55;4.77;;;4.47;;
1346;SDS011;667;48.796;9.480;2023-06-26T15:35:21;5.13;;;4.70;;
1346;SDS011;667;48.796;9.480;2023-06-26T15:37:47;5.77;;;4.77;;
1346;SDS011;667;48.796;9.480;2023-06-26T15:40:14;8.20;;;5.60;;